Time;durP1;ratioP1;P1;durP2;ratioP2;P2;SDS_P1;SDS_P2;PMS_P1;PMS_P2;Temp;Humidity;BMP_temperature;BMP_pressure;BME280_temperature;BME280_humidity;BME280_pressure;Samples;Min_cycle;Max_cycle;Signal;HPM_P1;HPM_P2
2023/05/06 00:01:08;;;;;;;8.38;6.50;;;12.40;99.90;;;;;;5020930;28;20523;-59
2023/05/06 00:03:34;;;;;;;9.98;7.90;;;12.30;99.90;;;;;;5024555;28;20061;-61
2023/05/06 00:06:01;;;;;;;8.57;7.15;;;12.30;99.90;;;;;;5025559;28;20041;-60
2023/05/06 00:08:27;;;;;;;9.68;7.35;;;12.30;99.90;;;;;;5025911;28;20376;-60
2023/05/06 00:10:55;;;;;;;8.90;7.70;;;12.30;99.90;;;;;;5024619;28;20041;-60
2023/05/06 00:13:21;;;;;;;11.10;9.20;;;12.30;99.90;;;;;;5027597;28;20041;-59
2023/05/06 00:15:47;;;;;;;8.70;7.53;;;12.20;99.90;;;;;;5019387;28;20086;-60
2023/05/06 00:18:14;;;;;;;7.35;6.25;;;12.20;99.90;;;;;;5025335;28;20044;-59
2023/05/06 00:20:40;;;;;;;10.55;8.02;;;12.30;99.90;;;;;;5025900;28;20052;-61
2023/05/06 00:23:06;;;;;;;9.90;7.40;;;12.20;99.90;;;;;;5025845;28;20057;-60
2023/05/06 00:25:32;;;;;;;9.80;7.95;;;12.20;99.90;;;;;;5038445;28;20053;-61
2023/05/06 00:28:00;;;;;;;9.27;7.45;;;12.20;99.90;;;;;;5026291;28;20714;-60
2023/05/06 00:30:26;;;;;;;10.52;7.55;;;12.20;99.90;;;;;;5027531;28;20045;-60
2023/05/06 00:32:52;;;;;;;9.02;6.57;;;12.20;99.90;;;;;;5002609;28;20039;-60
2023/05/06 00:35:21;;;;;;;7.47;6.60;;;12.20;99.90;;;;;;5025681;28;20042;-61
2023/05/06 00:37:55;;;;;;;9.35;7.57;;;12.20;99.90;;;;;;5020076;28;20046;-60
2023/05/06 00:40:21;;;;;;;10.02;8.88;;;12.20;99.90;;;;;;5025578;28;20589;-60
2023/05/06 00:42:50;;;;;;;7.63;6.10;;;12.20;99.90;;;;;;5027463;28;20108;-60
2023/05/06 00:45:18;;;;;;;8.20;6.53;;;12.20;99.90;;;;;;5024101;28;20045;-61
2023/05/06 00:47:44;;;;;;;10.52;7.95;;;12.20;99.90;;;;;;5019024;28;20041;-61
2023/05/06 00:50:10;;;;;;;16.98;11.15;;;12.30;99.90;;;;;;5024230;28;20041;-61
2023/05/06 00:52:35;;;;;;;7.95;6.78;;;12.20;99.90;;;;;;5021279;28;20073;-60
2023/05/06 00:55:02;;;;;;;9.32;7.20;;;12.20;99.90;;;;;;5025546;28;20048;-60
2023/05/06 00:57:27;;;;;;;7.20;6.20;;;12.20;99.90;;;;;;5021640;28;20501;-61
2023/05/06 00:59:54;;;;;;;10.48;7.78;;;12.20;99.90;;;;;;5002043;28;20124;-60
2023/05/06 01:02:19;;;;;;;10.52;9.10;;;12.20;99.90;;;;;;5018071;28;20077;-61
2023/05/06 01:04:46;;;;;;;9.45;7.13;;;12.20;99.90;;;;;;5022010;28;20117;-61
2023/05/06 01:07:31;;;;;;;8.50;7.43;;;12.20;99.90;;;;;;5023564;28;20041;-61
2023/05/06 01:10:06;;;;;;;9.85;7.28;;;12.20;99.90;;;;;;5025289;28;20037;-60
2023/05/06 01:12:47;;;;;;;8.35;7.45;;;12.20;99.90;;;;;;5021903;28;20045;-60
2023/05/06 01:15:32;;;;;;;10.43;8.25;;;12.20;99.90;;;;;;5027117;28;20056;-61
2023/05/06 01:18:02;;;;;;;8.35;6.97;;;12.20;99.90;;;;;;5031984;28;20045;-60
2023/05/06 01:20:30;;;;;;;9.45;7.95;;;12.20;99.90;;;;;;5027910;28;20042;-61
2023/05/06 01:22:56;;;;;;;14.05;10.55;;;12.10;99.90;;;;;;5028264;28;20103;-60
2023/05/06 01:25:22;;;;;;;11.68;9.13;;;12.10;99.90;;;;;;5030442;28;20042;-60
2023/05/06 01:27:49;;;;;;;12.23;9.40;;;12.10;99.90;;;;;;5027039;28;20566;-60
2023/05/06 01:30:19;;;;;;;9.27;7.07;;;12.00;99.90;;;;;;5029505;28;20049;-61
2023/05/06 01:33:07;;;;;;;8.57;6.90;;;12.00;99.90;;;;;;5030022;28;20064;-59
2023/05/06 01:35:47;;;;;;;11.52;8.65;;;12.00;99.90;;;;;;5029770;28;20053;-61
2023/05/06 01:38:57;;;;;;;9.85;7.70;;;12.10;99.90;;;;;;5029037;28;20096;-61
2023/05/06 01:41:24;;;;;;;12.80;9.18;;;12.00;99.90;;;;;;5022332;28;20235;-61
2023/05/06 01:43:53;;;;;;;13.02;8.68;;;12.10;99.90;;;;;;5029636;28;20049;-61
2023/05/06 01:46:20;;;;;;;11.60;9.07;;;12.10;99.90;;;;;;5042379;28;20064;-61
2023/05/06 01:48:49;;;;;;;11.40;9.50;;;12.00;99.90;;;;;;5028843;28;20041;-60
2023/05/06 01:51:17;;;;;;;14.70;11.32;;;12.00;99.90;;;;;;5030820;28;20091;-61
2023/05/06 01:53:43;;;;;;;9.73;7.57;;;12.10;99.90;;;;;;5028237;28;20037;-61
2023/05/06 01:56:09;;;;;;;14.32;11.27;;;12.10;99.90;;;;;;5030008;28;20033;-61
2023/05/06 01:58:35;;;;;;;16.08;12.63;;;12.10;99.90;;;;;;5025692;28;20044;-61
2023/05/06 02:01:01;;;;;;;9.63;7.13;;;12.10;99.90;;;;;;5025356;28;20041;-61
2023/05/06 02:03:29;;;;;;;10.13;8.75;;;12.10;99.90;;;;;;5028560;28;20041;-61
2023/05/06 02:05:55;;;;;;;9.23;7.68;;;12.10;99.90;;;;;;5027051;28;20490;-61
2023/05/06 02:08:21;;;;;;;16.10;11.10;;;12.10;99.90;;;;;;5029403;28;20087;-60
2023/05/06 02:10:46;;;;;;;18.70;12.80;;;12.10;99.90;;;;;;5025290;28;20085;-61
2023/05/06 02:13:12;;;;;;;12.63;10.05;;;12.10;99.90;;;;;;5014457;28;20095;-60
2023/05/06 02:15:38;;;;;;;16.33;11.18;;;12.10;99.90;;;;;;5024268;28;20500;-61
2023/05/06 02:18:04;;;;;;;11.90;9.65;;;12.10;99.90;;;;;;5025243;28;20044;-60
2023/05/06 02:20:29;;;;;;;13.73;10.05;;;12.10;99.90;;;;;;5020864;28;20041;-61
2023/05/06 02:22:55;;;;;;;14.88;11.95;;;12.00;99.90;;;;;;5023567;28;20419;-61
2023/05/06 02:25:22;;;;;;;13.25;9.20;;;12.00;99.90;;;;;;5029586;28;20103;-61
2023/05/06 02:27:47;;;;;;;13.40;10.27;;;12.00;99.90;;;;;;5029079;28;20033;-61
2023/05/06 02:30:13;;;;;;;13.88;10.40;;;12.00;99.90;;;;;;5023833;28;20042;-61
2023/05/06 02:32:40;;;;;;;12.48;9.38;;;12.00;99.90;;;;;;5024470;28;20048;-60
2023/05/06 02:35:06;;;;;;;12.93;9.38;;;12.00;99.90;;;;;;5009940;28;20041;-60
2023/05/06 02:37:32;;;;;;;11.93;9.65;;;11.90;99.90;;;;;;5028758;28;20068;-61
2023/05/06 02:39:57;;;;;;;12.70;9.38;;;11.90;99.90;;;;;;5027177;28;20065;-59
2023/05/06 02:42:26;;;;;;;13.40;10.45;;;11.90;99.90;;;;;;5023089;28;20132;-60
2023/05/06 02:44:52;;;;;;;13.45;10.30;;;11.90;99.90;;;;;;5025683;28;20116;-61
2023/05/06 02:47:17;;;;;;;15.38;9.82;;;11.80;99.90;;;;;;5021215;28;20045;-61
2023/05/06 02:49:43;;;;;;;13.98;10.82;;;11.90;99.90;;;;;;5025402;28;20476;-59
2023/05/06 02:52:09;;;;;;;14.90;11.73;;;11.90;99.90;;;;;;5024121;28;20077;-61
2023/05/06 02:54:34;;;;;;;14.77;10.73;;;11.80;99.90;;;;;;5023993;28;20037;-61
2023/05/06 02:57:03;;;;;;;18.63;13.48;;;11.80;99.90;;;;;;5027064;28;20057;-60
2023/05/06 02:59:29;;;;;;;14.40;10.88;;;11.80;99.90;;;;;;5026990;28;20045;-60
2023/05/06 03:01:55;;;;;;;18.67;12.45;;;11.80;99.90;;;;;;5022573;28;20049;-60
2023/05/06 03:04:24;;;;;;;14.52;11.15;;;11.70;99.90;;;;;;5024662;28;20593;-61
2023/05/06 03:06:49;;;;;;;17.10;12.55;;;11.70;99.90;;;;;;5026037;28;20125;-60
2023/05/06 03:09:15;;;;;;;15.60;11.32;;;11.70;99.90;;;;;;5026694;28;20141;-60
2023/05/06 03:11:41;;;;;;;15.85;11.07;;;11.70;99.90;;;;;;5025851;28;20425;-60
2023/05/06 03:14:06;;;;;;;17.50;12.10;;;11.70;99.90;;;;;;5026882;28;20124;-61
2023/05/06 03:16:35;;;;;;;13.45;10.70;;;11.60;99.90;;;;;;5014505;28;20166;-61
2023/05/06 03:19:02;;;;;;;15.68;12.52;;;11.60;99.90;;;;;;5000299;28;20042;-60
2023/05/06 03:21:28;;;;;;;13.63;10.05;;;11.60;99.90;;;;;;5025165;28;20539;-60
2023/05/06 03:23:54;;;;;;;14.77;10.23;;;11.60;99.90;;;;;;5026642;28;20045;-61
2023/05/06 03:26:20;;;;;;;17.40;13.85;;;11.50;99.90;;;;;;4988215;28;20051;-61
2023/05/06 03:28:49;;;;;;;13.48;10.43;;;11.50;99.90;;;;;;5026263;28;20037;-60
2023/05/06 03:31:14;;;;;;;20.58;14.13;;;11.50;99.90;;;;;;5026003;28;20104;-60
2023/05/06 03:33:40;;;;;;;12.65;9.40;;;11.40;99.90;;;;;;5027201;28;20425;-59
2023/05/06 03:36:06;;;;;;;16.45;12.43;;;11.50;99.90;;;;;;5026441;28;20125;-60
2023/05/06 03:38:32;;;;;;;15.80;11.82;;;11.50;99.90;;;;;;5024878;28;20050;-60
2023/05/06 03:40:58;;;;;;;16.27;11.90;;;11.50;99.90;;;;;;5007808;28;20120;-60
2023/05/06 03:43:23;;;;;;;17.33;13.02;;;11.50;99.90;;;;;;5007445;28;20382;-59
2023/05/06 03:45:49;;;;;;;18.10;13.30;;;11.50;99.90;;;;;;5027391;28;20614;-61
2023/05/06 03:48:15;;;;;;;14.07;9.77;;;11.40;99.90;;;;;;5027989;28;20037;-60
2023/05/06 03:50:41;;;;;;;17.67;13.77;;;11.50;99.90;;;;;;5026387;28;20559;-58
2023/05/06 03:53:07;;;;;;;19.40;13.70;;;11.50;99.90;;;;;;5023082;28;20130;-60
2023/05/06 03:55:33;;;;;;;16.85;13.20;;;11.50;99.90;;;;;;4993871;28;20049;-61
2023/05/06 03:58:00;;;;;;;17.25;12.48;;;11.50;99.90;;;;;;5025266;28;20095;-60
2023/05/06 04:00:26;;;;;;;17.08;12.65;;;11.60;99.90;;;;;;5017430;28;20077;-61
2023/05/06 04:02:52;;;;;;;20.45;13.35;;;11.60;99.90;;;;;;5024094;28;20049;-60
2023/05/06 04:05:18;;;;;;;19.92;14.18;;;11.60;99.90;;;;;;5027625;28;20037;-61
2023/05/06 04:07:43;;;;;;;15.40;11.43;;;11.60;99.90;;;;;;5026826;28;20068;-61
2023/05/06 04:10:09;;;;;;;18.35;13.43;;;11.70;99.90;;;;;;5024565;28;20034;-59
2023/05/06 04:12:35;;;;;;;18.48;12.82;;;11.70;99.90;;;;;;5034101;22;20050;-61
2023/05/06 04:15:01;;;;;;;20.25;13.82;;;11.70;99.90;;;;;;5008672;28;20076;-61
2023/05/06 04:17:26;;;;;;;13.63;10.38;;;11.70;99.90;;;;;;4982266;28;20042;-60
2023/05/06 04:19:55;;;;;;;13.88;11.50;;;11.70;99.90;;;;;;5001106;28;20468;-60
2023/05/06 04:22:21;;;;;;;18.73;12.48;;;11.70;99.90;;;;;;4986639;28;20417;-60
2023/05/06 04:24:46;;;;;;;19.75;12.68;;;11.70;99.90;;;;;;5003783;28;20055;-61
2023/05/06 04:27:12;;;;;;;19.40;14.63;;;11.80;99.90;;;;;;5008898;28;20069;-60
2023/05/06 04:29:38;;;;;;;17.83;13.13;;;11.80;99.90;;;;;;4990158;28;20038;-60
2023/05/06 04:32:04;;;;;;;19.75;14.82;;;11.80;99.90;;;;;;5009806;28;20058;-60
2023/05/06 04:34:30;;;;;;;17.45;13.43;;;11.80;99.90;;;;;;5007210;28;20073;-60
2023/05/06 04:36:57;;;;;;;21.75;14.90;;;11.80;99.90;;;;;;4987479;28;20479;-60
2023/05/06 04:39:23;;;;;;;20.40;13.07;;;11.80;99.90;;;;;;5021782;28;20046;-60
2023/05/06 04:41:49;;;;;;;19.67;13.70;;;11.90;99.90;;;;;;5003147;28;20030;-60
2023/05/06 04:44:15;;;;;;;17.95;12.63;;;11.90;99.90;;;;;;4996252;28;20480;-60
2023/05/06 04:46:41;;;;;;;24.20;16.38;;;11.90;99.90;;;;;;4999746;28;20039;-59
2023/05/06 04:49:07;;;;;;;23.42;16.73;;;11.90;99.90;;;;;;4983711;28;20096;-60
2023/05/06 04:51:33;;;;;;;15.27;12.13;;;11.80;99.90;;;;;;4982452;28;20034;-60
2023/05/06 04:53:58;;;;;;;12.38;9.32;;;11.80;99.90;;;;;;5009527;28;20041;-60
2023/05/06 04:56:25;;;;;;;17.48;13.55;;;11.80;99.90;;;;;;5016036;28;20073;-60
2023/05/06 04:58:53;;;;;;;18.48;13.88;;;11.80;99.90;;;;;;4995144;28;20084;-60
2023/05/06 05:01:19;;;;;;;19.15;13.18;;;11.80;99.90;;;;;;5004366;28;20053;-60
2023/05/06 05:03:45;;;;;;;16.90;12.80;;;11.90;99.90;;;;;;5013837;28;20444;-60
2023/05/06 05:06:13;;;;;;;18.52;13.38;;;11.90;99.90;;;;;;5012595;28;20038;-60
2023/05/06 05:08:39;;;;;;;14.40;11.25;;;11.80;99.90;;;;;;5012666;28;20042;-60
2023/05/06 05:11:05;;;;;;;19.25;13.15;;;11.90;99.90;;;;;;4995946;28;20046;-60
2023/05/06 05:13:31;;;;;;;19.10;13.27;;;11.90;99.90;;;;;;4992757;28;20103;-60
2023/05/06 05:15:57;;;;;;;21.67;14.20;;;11.90;99.90;;;;;;5008788;28;20045;-60
2023/05/06 05:18:23;;;;;;;20.20;13.35;;;11.90;99.90;;;;;;5012876;28;20452;-60
2023/05/06 05:20:49;;;;;;;16.42;12.07;;;11.90;99.90;;;;;;5007724;28;20046;-60
2023/05/06 05:23:17;;;;;;;19.90;12.50;;;12.00;99.90;;;;;;5012599;28;20087;-60
2023/05/06 05:25:43;;;;;;;18.38;13.25;;;12.00;99.90;;;;;;4996627;28;20037;-60
2023/05/06 05:28:09;;;;;;;17.63;13.20;;;12.00;99.90;;;;;;5000933;28;20518;-60
2023/05/06 05:30:34;;;;;;;17.88;12.32;;;12.00;99.90;;;;;;5001165;28;20042;-60
2023/05/06 05:33:03;;;;;;;17.33;12.27;;;12.10;99.90;;;;;;4995411;28;20124;-61
2023/05/06 05:35:29;;;;;;;16.05;10.95;;;12.10;99.90;;;;;;5002566;28;20112;-60
2023/05/06 05:37:55;;;;;;;14.95;10.77;;;12.10;99.90;;;;;;5006577;28;20792;-61
2023/05/06 05:40:20;;;;;;;17.08;12.00;;;12.10;99.90;;;;;;5006983;28;20056;-60
2023/05/06 05:42:46;;;;;;;11.45;8.30;;;12.10;99.90;;;;;;5009957;28;20041;-60
2023/05/06 05:45:12;;;;;;;11.70;9.05;;;12.10;99.90;;;;;;5003678;28;20057;-60
2023/05/06 05:47:37;;;;;;;14.13;9.63;;;12.20;99.90;;;;;;5009452;28;20050;-60
2023/05/06 05:50:03;;;;;;;14.93;9.60;;;12.20;99.90;;;;;;5012485;28;20205;-60
2023/05/06 05:52:30;;;;;;;13.18;9.80;;;12.20;99.90;;;;;;5003338;28;20416;-60
2023/05/06 05:54:56;;;;;;;17.23;10.38;;;12.20;99.90;;;;;;5014730;28;20466;-60
2023/05/06 05:57:21;;;;;;;14.80;9.70;;;12.30;99.90;;;;;;5005926;28;20041;-60
2023/05/06 05:59:47;;;;;;;16.13;10.82;;;12.30;99.90;;;;;;4990814;28;20045;-60
2023/05/06 06:02:16;;;;;;;16.25;11.52;;;12.30;99.90;;;;;;4994416;28;20094;-60
2023/05/06 06:04:41;;;;;;;20.02;13.48;;;12.30;99.90;;;;;;4999794;28;20061;-60
2023/05/06 06:07:07;;;;;;;19.30;13.50;;;12.30;99.90;;;;;;5011051;28;20488;-60
2023/05/06 06:09:33;;;;;;;13.15;9.55;;;12.30;99.90;;;;;;5003351;28;20088;-60
2023/05/06 06:11:59;;;;;;;14.13;9.38;;;12.30;99.90;;;;;;5007084;28;20120;-60
2023/05/06 06:14:24;;;;;;;16.75;9.77;;;12.30;99.90;;;;;;5008138;28;20053;-62
2023/05/06 06:16:50;;;;;;;14.82;10.55;;;12.30;99.90;;;;;;4994096;28;20045;-60
2023/05/06 06:19:16;;;;;;;14.07;10.48;;;12.30;99.90;;;;;;5007793;28;20139;-61
2023/05/06 06:21:41;;;;;;;18.35;10.85;;;12.40;99.90;;;;;;4999243;28;20073;-58
2023/05/06 06:24:07;;;;;;;13.90;10.07;;;12.40;99.90;;;;;;4974496;28;20049;-60
2023/05/06 06:26:33;;;;;;;17.40;9.60;;;12.40;99.90;;;;;;5004701;28;20049;-60
2023/05/06 06:28:59;;;;;;;13.43;8.80;;;12.50;99.90;;;;;;5004885;28;20048;-61
2023/05/06 06:31:28;;;;;;;11.73;8.52;;;12.50;99.90;;;;;;5010046;28;20042;-62
2023/05/06 06:33:56;;;;;;;11.18;7.63;;;12.50;99.90;;;;;;4999776;28;20045;-62
2023/05/06 06:36:22;;;;;;;14.38;8.45;;;12.50;99.90;;;;;;5002319;28;20042;-60
2023/05/06 06:38:48;;;;;;;10.80;6.95;;;12.60;99.90;;;;;;4991626;28;20045;-60
2023/05/06 06:41:14;;;;;;;10.18;6.80;;;12.60;99.90;;;;;;4990297;28;20065;-60
2023/05/06 06:43:39;;;;;;;11.88;7.38;;;12.60;99.90;;;;;;4999365;28;20097;-62
2023/05/06 06:46:05;;;;;;;9.85;6.60;;;12.70;99.90;;;;;;4990763;28;20047;-60
2023/05/06 06:48:31;;;;;;;11.70;8.25;;;12.70;99.90;;;;;;4986128;28;20473;-62
2023/05/06 06:50:56;;;;;;;10.63;7.20;;;12.80;99.90;;;;;;4972513;28;20052;-62
2023/05/06 06:53:22;;;;;;;11.63;8.40;;;12.80;99.90;;;;;;4983066;28;20053;-60
2023/05/06 06:55:51;;;;;;;12.60;8.73;;;12.90;99.90;;;;;;5009385;28;20092;-60
2023/05/06 06:58:17;;;;;;;11.13;8.57;;;12.90;99.90;;;;;;4974982;28;20042;-62
2023/05/06 07:00:43;;;;;;;16.20;9.75;;;13.00;99.90;;;;;;4975562;28;20051;-62
2023/05/06 07:03:08;;;;;;;14.32;9.80;;;12.90;99.90;;;;;;4998257;28;20041;-62
2023/05/06 07:05:34;;;;;;;12.05;9.00;;;13.00;99.90;;;;;;5001495;28;20045;-62
2023/05/06 07:08:00;;;;;;;11.82;8.82;;;13.00;99.90;;;;;;4974738;28;20034;-62
2023/05/06 07:10:26;;;;;;;13.27;9.75;;;13.10;99.90;;;;;;5004052;28;20507;-59
2023/05/06 07:12:52;;;;;;;12.15;8.60;;;13.10;99.90;;;;;;4993322;28;20042;-62
2023/05/06 07:15:18;;;;;;;12.43;8.65;;;13.30;99.90;;;;;;5000798;28;20046;-62
2023/05/06 07:17:44;;;;;;;12.40;8.93;;;13.40;99.90;;;;;;4996042;28;20100;-62
2023/05/06 07:20:10;;;;;;;11.05;8.75;;;13.50;99.90;;;;;;4985592;28;20347;-62
2023/05/06 07:22:36;;;;;;;14.48;9.10;;;13.60;99.90;;;;;;5014745;28;20057;-62
2023/05/06 07:25:02;;;;;;;11.05;8.65;;;13.80;99.90;;;;;;4991673;28;20042;-62
2023/05/06 07:27:29;;;;;;;11.43;8.77;;;14.00;99.90;;;;;;4990016;28;20087;-59
2023/05/06 07:29:55;;;;;;;10.70;8.13;;;14.10;99.90;;;;;;4972440;28;20038;-62
2023/05/06 07:32:21;;;;;;;8.98;7.32;;;14.20;99.90;;;;;;5002526;28;20390;-62
2023/05/06 07:34:47;;;;;;;12.05;7.85;;;14.30;99.90;;;;;;4985553;28;20131;-62
2023/05/06 07:37:12;;;;;;;10.63;7.15;;;14.40;99.90;;;;;;5005350;28;20239;-62
2023/05/06 07:39:38;;;;;;;10.15;7.55;;;14.50;99.90;;;;;;4967951;28;20042;-62
2023/05/06 07:42:04;;;;;;;9.30;6.93;;;14.60;99.90;;;;;;4993958;28;20045;-59
2023/05/06 07:44:30;;;;;;;11.68;7.38;;;14.70;99.90;;;;;;5000093;28;20048;-62
2023/05/06 07:46:56;;;;;;;9.70;6.85;;;14.80;99.90;;;;;;5022220;28;20061;-62
2023/05/06 07:49:22;;;;;;;10.10;6.45;;;15.00;99.90;;;;;;5002906;28;20066;-62
2023/05/06 07:51:47;;;;;;;8.95;6.22;;;15.10;99.90;;;;;;4990986;28;20082;-63
2023/05/06 07:54:13;;;;;;;10.57;7.43;;;15.30;99.90;;;;;;5000793;28;20041;-60
2023/05/06 07:56:39;;;;;;;7.00;6.18;;;15.40;99.90;;;;;;4992481;28;20103;-62
2023/05/06 07:59:05;;;;;;;10.75;7.57;;;15.50;99.90;;;;;;4989265;28;20046;-63
2023/05/06 08:01:30;;;;;;;8.55;6.57;;;15.70;99.90;;;;;;4997952;28;20452;-63
2023/05/06 08:03:56;;;;;;;9.25;6.47;;;15.70;99.90;;;;;;5001650;28;20092;-62
2023/05/06 08:06:22;;;;;;;7.97;6.60;;;15.80;99.90;;;;;;4987748;28;20092;-62
2023/05/06 08:08:48;;;;;;;9.95;6.65;;;15.90;99.90;;;;;;5003739;28;20460;-62
2023/05/06 08:11:13;;;;;;;9.13;6.30;;;16.00;99.90;;;;;;4970677;28;20038;-62
2023/05/06 08:13:39;;;;;;;10.00;6.50;;;16.10;99.90;;;;;;5005023;28;20044;-63
2023/05/06 08:16:05;;;;;;;9.73;7.13;;;16.20;99.90;;;;;;4988788;28;20049;-62
2023/05/06 08:18:32;;;;;;;8.85;7.10;;;16.30;99.90;;;;;;4995420;28;20113;-62
2023/05/06 08:20:57;;;;;;;12.27;9.40;;;16.40;99.90;;;;;;5019542;28;20239;-62
2023/05/06 08:23:23;;;;;;;13.75;9.85;;;16.50;99.90;;;;;;4969084;28;20116;-62
2023/05/06 08:25:49;;;;;;;11.48;9.30;;;16.70;99.90;;;;;;4972025;28;20049;-62
2023/05/06 08:28:15;;;;;;;12.48;9.77;;;16.70;99.90;;;;;;4991862;28;20048;-62
2023/05/06 08:30:40;;;;;;;10.48;8.73;;;16.70;99.90;;;;;;4999790;28;20088;-62
2023/05/06 08:33:06;;;;;;;9.02;7.55;;;16.80;99.90;;;;;;4974224;28;20453;-62
2023/05/06 08:35:34;;;;;;;10.40;7.93;;;16.90;99.90;;;;;;5003881;28;20129;-62
2023/05/06 08:38:00;;;;;;;9.10;7.10;;;17.10;99.90;;;;;;4999471;28;20041;-62
2023/05/06 08:40:29;;;;;;;11.50;8.05;;;17.20;99.90;;;;;;5002368;28;20052;-62
2023/05/06 08:42:56;;;;;;;10.32;7.93;;;17.30;99.90;;;;;;5005937;28;20129;-62
2023/05/06 08:45:22;;;;;;;10.23;6.93;;;17.40;99.90;;;;;;4999737;28;20042;-62
2023/05/06 08:47:48;;;;;;;11.27;7.43;;;17.50;99.90;;;;;;5000335;28;20132;-63
2023/05/06 08:50:14;;;;;;;10.05;8.40;;;17.60;99.90;;;;;;5005708;28;20081;-63
2023/05/06 08:52:40;;;;;;;9.27;7.20;;;17.70;99.90;;;;;;4984326;28;20132;-62
2023/05/06 08:55:07;;;;;;;9.27;8.00;;;17.70;99.90;;;;;;5007628;28;20240;-61
2023/05/06 08:57:33;;;;;;;10.07;7.72;;;17.80;99.90;;;;;;5003377;28;20523;-63
2023/05/06 08:59:59;;;;;;;9.95;7.40;;;17.90;99.90;;;;;;4982272;28;20135;-63
2023/05/06 09:02:25;;;;;;;10.65;7.40;;;17.90;99.90;;;;;;5002449;28;20081;-63
2023/05/06 09:04:52;;;;;;;10.57;7.15;;;18.00;99.90;;;;;;4992984;28;20046;-61
2023/05/06 09:07:22;;;;;;;9.95;7.70;;;18.10;99.90;;;;;;5005289;28;20046;-62
2023/05/06 09:09:48;;;;;;;10.75;8.00;;;18.20;99.90;;;;;;5006690;28;20690;-61
2023/05/06 09:12:14;;;;;;;9.88;8.10;;;18.30;99.90;;;;;;5006049;28;20042;-62
2023/05/06 09:14:41;;;;;;;9.80;8.60;;;18.30;99.90;;;;;;5015824;28;20053;-63
2023/05/06 09:17:22;;;;;;;9.38;7.88;;;18.40;99.90;;;;;;5008456;28;20084;-61
2023/05/06 09:19:52;;;;;;;13.00;8.18;;;18.40;99.90;;;;;;4998387;28;20147;-63
2023/05/06 09:22:24;;;;;;;11.00;8.73;;;18.50;99.90;;;;;;5014549;28;20046;-62
2023/05/06 09:24:56;;;;;;;12.65;10.07;;;18.60;99.90;;;;;;4998487;28;20571;-63
2023/05/06 09:27:35;;;;;;;10.00;8.48;;;18.70;99.90;;;;;;5006221;28;20046;-63
2023/05/06 09:30:01;;;;;;;10.88;8.88;;;18.90;99.90;;;;;;4999053;28;20066;-60
2023/05/06 09:32:27;;;;;;;12.73;9.35;;;18.90;99.90;;;;;;5000111;28;20088;-63
2023/05/06 09:34:54;;;;;;;11.07;9.20;;;19.00;99.90;;;;;;5000392;28;20040;-63
2023/05/06 09:37:19;;;;;;;11.02;9.25;;;19.10;99.90;;;;;;5022734;28;20034;-63
2023/05/06 09:39:46;;;;;;;11.20;9.27;;;19.30;99.90;;;;;;4985145;28;20563;-61
2023/05/06 09:42:12;;;;;;;11.80;9.60;;;19.30;99.90;;;;;;5010017;28;20041;-62
2023/05/06 09:44:38;;;;;;;9.63;8.55;;;19.40;99.90;;;;;;4990023;28;20069;-61
2023/05/06 09:47:05;;;;;;;10.25;8.75;;;19.50;99.90;;;;;;5007855;28;20069;-59
